createdAt,value
2023-12-05T00:00:14.417Z,100045.41
2023-12-05T00:02:42.912Z,99986.16
2023-12-05T00:05:12.223Z,100068.94
2023-12-05T00:07:41.399Z,100017.06
2023-12-05T00:10:11.805Z,100029.72
2023-12-05T00:12:40.827Z,100045.03
2023-12-05T00:15:10.941Z,100021.00
2023-12-05T00:17:39.499Z,100020.78
2023-12-05T00:20:09.700Z,100060.25
2023-12-05T00:22:39.149Z,100050.25
2023-12-05T00:25:08.906Z,100060.69
2023-12-05T00:27:38.788Z,100019.00
2023-12-05T00:30:09.080Z,100035.91
2023-12-05T00:32:37.618Z,99976.00
2023-12-05T00:35:07.369Z,100019.66
2023-12-05T00:37:35.888Z,100054.88
2023-12-05T00:40:05.868Z,100054.69
2023-12-05T00:42:34.434Z,100058.44
2023-12-05T00:45:04.701Z,100031.88
2023-12-05T00:47:33.216Z,100054.97
2023-12-05T00:50:01.659Z,99994.59
2023-12-05T00:52:30.128Z,100034.53
2023-12-05T00:54:59.020Z,100055.66
2023-12-05T00:57:27.425Z,100044.84
2023-12-05T00:59:56.252Z,100047.25
2023-12-05T01:02:26.077Z,100019.28
2023-12-05T01:04:54.628Z,100051.13
2023-12-05T01:07:23.292Z,100017.16
2023-12-05T01:09:51.786Z,100025.16
2023-12-05T01:12:21.065Z,100050.06
2023-12-05T01:14:51.748Z,100045.78
2023-12-05T01:17:20.381Z,100028.78
2023-12-05T01:19:50.653Z,100046.44
2023-12-05T01:22:19.065Z,100046.53
2023-12-05T01:24:55.932Z,100008.63
2023-12-05T01:27:24.731Z,100037.97
2023-12-05T01:29:53.602Z,100045.34
2023-12-05T01:32:22.171Z,100018.63
2023-12-05T01:34:51.956Z,100026.50
2023-12-05T01:37:20.635Z,100030.59
2023-12-05T01:39:49.088Z,99964.41
2023-12-05T01:42:17.619Z,100058.97
2023-12-05T01:44:46.118Z,100058.25
2023-12-05T01:47:17.594Z,100065.47
2023-12-05T01:49:48.146Z,100073.56
2023-12-05T01:52:18.709Z,100070.38
2023-12-05T01:54:47.993Z,100057.88
2023-12-05T01:57:17.569Z,100034.78
2023-12-05T01:59:46.155Z,100075.94
2023-12-05T02:02:15.253Z,100049.97
2023-12-05T02:04:45.735Z,100047.03
2023-12-05T02:07:15.759Z,99970.03
2023-12-05T02:09:47.378Z,100064.97
2023-12-05T02:12:15.893Z,100063.44
2023-12-05T02:14:44.739Z,100068.59
2023-12-05T02:17:22.778Z,100070.25
2023-12-05T02:20:07.763Z,100068.31
2023-12-05T02:23:03.524Z,100052.63
2023-12-05T02:25:56.168Z,100067.63
2023-12-05T02:28:26.858Z,100015.50
2023-12-05T02:30:55.439Z,100062.75
2023-12-05T02:33:24.047Z,100070.25
2023-12-05T02:36:03.606Z,100028.25
2023-12-05T02:38:42.048Z,100065.53
2023-12-05T02:41:18.593Z,100036.63
2023-12-05T02:43:53.193Z,99960.03
2023-12-05T02:46:23.301Z,100034.25
2023-12-05T02:48:52.870Z,100065.69
2023-12-05T02:51:22.286Z,100037.75
2023-12-05T02:53:50.804Z,100065.41
2023-12-05T02:56:20.676Z,100022.59
2023-12-05T02:58:50.445Z,99995.50
2023-12-05T03:01:18.970Z,100070.00
2023-12-05T03:03:47.882Z,99970.91
2023-12-05T03:06:16.483Z,100054.56
2023-12-05T03:08:44.987Z,100033.03
2023-12-05T03:11:13.638Z,100058.34
2023-12-05T03:13:42.348Z,100025.66
2023-12-05T03:16:12.784Z,100012.56
2023-12-05T03:18:42.378Z,100011.06
2023-12-05T03:21:11.303Z,99956.03
2023-12-05T03:23:40.083Z,100072.38
2023-12-05T03:26:09.719Z,100019.97
2023-12-05T03:28:38.304Z,100038.19
2023-12-05T03:31:07.233Z,100053.72
2023-12-05T03:33:39.289Z,100047.22
2023-12-05T03:36:09.028Z,100068.88
2023-12-05T03:38:39.923Z,99999.94
2023-12-05T03:41:10.797Z,99982.03
2023-12-05T03:43:39.246Z,100047.06
2023-12-05T03:46:08.138Z,100025.13
2023-12-05T03:48:38.984Z,100025.38
2023-12-05T03:51:08.571Z,100034.00
2023-12-05T03:53:37.051Z,100075.00
2023-12-05T03:56:06.622Z,100072.63
2023-12-05T03:58:35.177Z,100083.50
2023-12-05T04:01:03.649Z,100093.50
2023-12-05T04:03:32.343Z,100089.31
2023-12-05T04:06:02.280Z,100086.56
2023-12-05T04:08:30.708Z,99979.66
2023-12-05T04:10:59.222Z,100096.56
2023-12-05T04:13:30.080Z,100026.22
2023-12-05T04:15:59.223Z,100065.28
2023-12-05T04:18:27.818Z,100051.09
2023-12-05T04:20:56.259Z,100097.09
2023-12-05T04:23:26.209Z,100092.81
2023-12-05T04:25:54.672Z,100008.16
2023-12-05T04:28:23.527Z,100100.72
2023-12-05T04:30:51.945Z,100092.25
2023-12-05T04:33:20.739Z,100113.09
2023-12-05T04:35:49.226Z,100114.75
2023-12-05T04:38:18.587Z,100114.63
2023-12-05T04:40:48.397Z,100102.38
2023-12-05T04:43:17.435Z,100085.84
2023-12-05T04:45:47.053Z,100104.47
2023-12-05T04:48:15.942Z,100128.69
2023-12-05T04:50:47.200Z,100123.81
2023-12-05T04:53:15.756Z,100126.16
2023-12-05T04:55:44.536Z,100128.69
2023-12-05T04:58:14.373Z,100112.69
2023-12-05T05:00:43.140Z,100119.63
2023-12-05T05:03:12.943Z,100133.13
2023-12-05T05:05:41.693Z,100114.91
2023-12-05T05:08:10.310Z,100063.72
2023-12-05T05:10:38.737Z,100107.94
2023-12-05T05:13:07.232Z,100146.31
2023-12-05T05:15:37.243Z,100125.47
2023-12-05T05:18:05.968Z,100143.13
2023-12-05T05:20:34.480Z,100121.16
2023-12-05T05:23:03.111Z,100123.94
2023-12-05T05:25:32.132Z,100129.09
2023-12-05T05:28:00.735Z,100146.31
2023-12-05T05:30:29.289Z,100127.56
2023-12-05T05:32:59.360Z,100163.16
2023-12-05T05:35:27.996Z,100151.59
2023-12-05T05:37:56.513Z,100069.28
2023-12-05T05:40:27.388Z,100141.72
2023-12-05T05:42:56.122Z,100108.50
2023-12-05T05:45:27.383Z,100163.28
2023-12-05T05:47:55.911Z,100167.47
2023-12-05T05:50:25.871Z,100148.22
2023-12-05T05:52:54.350Z,100168.41
2023-12-05T05:55:26.083Z,100118.00
2023-12-05T05:57:55.052Z,100104.88
2023-12-05T06:00:24.595Z,100051.94
2023-12-05T06:02:53.176Z,100135.72
2023-12-05T06:05:21.757Z,100128.72
2023-12-05T06:07:51.625Z,100003.66
2023-12-05T06:10:20.498Z,100172.16
2023-12-05T06:12:49.161Z,100172.09
2023-12-05T06:15:17.881Z,100078.63
2023-12-05T06:17:49.350Z,100156.97
2023-12-05T06:20:18.561Z,100128.16
2023-12-05T06:22:47.659Z,100184.09
2023-12-05T06:25:17.702Z,100127.88
2023-12-05T06:27:47.601Z,100132.53
2023-12-05T06:30:21.809Z,100199.59
2023-12-05T06:32:55.596Z,100198.13
2023-12-05T06:35:24.148Z,100195.69
2023-12-05T06:37:54.035Z,100202.28
2023-12-05T06:40:23.971Z,100192.13
2023-12-05T06:42:52.454Z,100154.56
2023-12-05T06:45:20.982Z,100138.28
2023-12-05T06:47:49.538Z,100182.75
2023-12-05T06:50:18.398Z,100226.81
2023-12-05T06:52:47.406Z,100234.50
2023-12-05T06:55:16.037Z,100215.59
2023-12-05T06:57:46.016Z,100139.13
2023-12-05T07:00:16.960Z,100244.00
2023-12-05T07:02:49.106Z,100254.22
2023-12-05T07:05:17.992Z,100223.25
2023-12-05T07:07:46.960Z,100238.47
2023-12-05T07:10:15.378Z,100220.97
2023-12-05T07:12:45.742Z,100271.91
2023-12-05T07:15:14.406Z,100248.38
2023-12-05T07:17:42.956Z,100284.97
2023-12-05T07:20:12.183Z,100238.19
2023-12-05T07:22:40.738Z,100267.34
2023-12-05T07:25:09.836Z,100240.88
2023-12-05T07:27:38.414Z,100288.13
2023-12-05T07:30:10.145Z,100179.59
2023-12-05T07:32:38.909Z,100294.72
2023-12-05T07:35:08.673Z,100295.88
2023-12-05T07:37:37.412Z,100298.06
2023-12-05T07:40:07.839Z,100274.59
2023-12-05T07:42:36.455Z,100304.47
2023-12-05T07:45:06.445Z,100298.53
2023-12-05T07:47:36.503Z,100318.56
2023-12-05T07:50:05.808Z,100306.06
2023-12-05T07:52:34.282Z,100285.44
2023-12-05T07:55:02.717Z,100328.31
2023-12-05T07:57:31.233Z,100296.66
2023-12-05T08:00:00.991Z,100217.59
2023-12-05T08:02:29.813Z,100309.66
2023-12-05T08:04:59.751Z,100337.66
2023-12-05T08:07:28.809Z,100316.81
2023-12-05T08:09:58.525Z,100325.88
2023-12-05T08:12:27.029Z,100336.47
2023-12-05T08:14:55.560Z,100265.13
2023-12-05T08:17:24.102Z,100331.28
2023-12-05T08:19:52.621Z,100332.66
2023-12-05T08:22:23.150Z,100324.75
2023-12-05T08:24:52.124Z,100354.28
2023-12-05T08:27:20.540Z,100361.56
2023-12-05T08:29:48.965Z,100349.63
2023-12-05T08:32:17.456Z,100368.88
2023-12-05T08:34:46.094Z,100332.41
2023-12-05T08:37:14.586Z,100341.28
2023-12-05T08:39:44.801Z,100362.19
2023-12-05T08:42:13.272Z,100386.44
2023-12-05T08:44:41.689Z,100390.69
2023-12-05T08:47:10.597Z,100351.81
2023-12-05T08:49:39.139Z,100364.28
2023-12-05T08:52:07.883Z,100375.03
2023-12-05T08:54:36.422Z,100379.22
2023-12-05T08:57:06.994Z,100401.84
2023-12-05T08:59:35.365Z,100407.72
2023-12-05T09:02:06.138Z,100406.63
2023-12-05T09:04:34.735Z,100390.44
2023-12-05T09:07:03.527Z,100409.09
2023-12-05T09:09:32.385Z,100394.59
2023-12-05T09:12:01.325Z,100259.66
2023-12-05T09:14:31.318Z,100415.84
2023-12-05T09:17:00.708Z,100365.56
2023-12-05T09:19:29.340Z,100280.19
2023-12-05T09:21:58.220Z,100341.03
2023-12-05T09:24:27.188Z,100380.50
2023-12-05T09:26:55.900Z,100330.72
2023-12-05T09:29:24.549Z,100418.81
2023-12-05T09:31:54.373Z,100420.50
2023-12-05T09:34:23.134Z,100429.72
2023-12-05T09:36:51.668Z,100403.75
2023-12-05T09:39:20.344Z,100436.81
2023-12-05T09:41:54.778Z,100443.91
2023-12-05T09:44:24.321Z,100445.91
2023-12-05T09:46:59.132Z,100423.13
2023-12-05T09:49:29.730Z,100460.94
2023-12-05T09:51:59.382Z,100439.19
2023-12-05T09:54:28.845Z,100456.22
2023-12-05T09:56:59.718Z,100456.81
2023-12-05T09:59:28.638Z,100477.63
2023-12-05T10:02:04.761Z,100469.63
2023-12-05T10:04:43.056Z,100403.53
2023-12-05T10:07:12.869Z,100464.25
2023-12-05T10:09:43.994Z,100366.78
2023-12-05T10:12:14.637Z,100467.25
2023-12-05T10:14:43.536Z,100494.22
2023-12-05T10:17:13.940Z,100502.31
2023-12-05T10:19:42.564Z,100469.13
2023-12-05T10:22:11.808Z,100515.72
2023-12-05T10:24:47.843Z,100517.91
2023-12-05T10:27:17.741Z,100513.03
2023-12-05T10:29:46.123Z,100525.00
2023-12-05T10:32:16.280Z,100389.03
2023-12-05T10:34:50.340Z,100512.78
2023-12-05T10:37:23.710Z,100536.00
2023-12-05T10:39:53.296Z,100539.97
2023-12-05T10:42:22.201Z,100450.25
2023-12-05T10:44:50.751Z,100515.91
2023-12-05T10:47:20.887Z,100497.81
2023-12-05T10:49:50.970Z,100469.19
2023-12-05T10:52:21.839Z,100523.22
2023-12-05T10:54:57.937Z,100516.63
2023-12-05T10:57:34.301Z,100538.28
2023-12-05T11:00:06.946Z,100533.25
2023-12-05T11:02:40.257Z,100542.97
2023-12-05T11:05:12.018Z,100510.47
2023-12-05T11:07:40.636Z,100539.38
2023-12-05T11:10:10.483Z,100508.44
2023-12-05T11:12:41.755Z,100541.53
2023-12-05T11:15:13.190Z,100493.25
2023-12-05T11:17:54.827Z,100546.09
2023-12-05T11:20:45.991Z,100552.09
2023-12-05T11:23:39.758Z,100500.44
2023-12-05T11:26:45.449Z,100556.75
2023-12-05T11:29:50.358Z,100550.75
2023-12-05T11:32:28.529Z,100545.63
2023-12-05T11:35:12.879Z,100540.22
2023-12-05T11:38:14.736Z,100563.00
2023-12-05T11:40:43.727Z,100559.88
2023-12-05T11:43:14.223Z,100549.06
2023-12-05T11:45:44.890Z,100565.00
2023-12-05T11:48:15.679Z,100558.53
2023-12-05T11:50:47.253Z,100563.94
2023-12-05T11:53:17.619Z,100542.25
2023-12-05T11:55:49.464Z,100584.00
2023-12-05T11:58:29.897Z,100595.72
2023-12-05T12:01:07.768Z,100569.47
2023-12-05T12:03:48.773Z,100573.41
2023-12-05T12:06:22.460Z,100559.03
2023-12-05T12:08:55.003Z,100606.59
2023-12-05T12:11:24.334Z,100572.91
2023-12-05T12:13:53.388Z,100613.81
2023-12-05T12:16:24.998Z,100607.19
2023-12-05T12:18:55.206Z,100602.91
2023-12-05T12:21:31.629Z,100592.09
2023-12-05T12:24:00.595Z,100609.13
2023-12-05T12:26:33.467Z,100607.78
2023-12-05T12:29:09.079Z,100623.00
2023-12-05T12:31:38.054Z,100602.94
2023-12-05T12:34:09.399Z,100601.59
2023-12-05T12:36:39.938Z,100601.97
2023-12-05T12:39:08.531Z,100617.69
2023-12-05T12:41:37.309Z,100611.13
2023-12-05T12:44:07.046Z,100631.34
2023-12-05T12:46:35.692Z,100635.63
2023-12-05T12:49:29.657Z,100637.56
2023-12-05T12:51:59.880Z,100632.56
2023-12-05T12:54:28.688Z,100625.34
2023-12-05T12:56:57.830Z,100635.06
2023-12-05T12:59:26.260Z,100573.53
2023-12-05T13:01:55.509Z,100617.88
2023-12-05T13:04:25.940Z,100622.66
2023-12-05T13:06:57.994Z,100616.78
2023-12-05T13:09:27.559Z,100601.75
2023-12-05T13:11:56.201Z,100637.06
2023-12-05T13:14:24.863Z,100618.13
2023-12-05T13:16:53.381Z,100653.56
2023-12-05T13:19:28.503Z,100640.50
2023-12-05T13:21:58.583Z,100643.66
2023-12-05T13:24:27.748Z,100623.38
2023-12-05T13:26:59.589Z,100642.69
2023-12-05T13:29:28.638Z,100640.25
2023-12-05T13:31:57.603Z,100630.28
2023-12-05T13:34:26.300Z,100658.41
2023-12-05T13:36:55.147Z,100663.75
2023-12-05T13:39:25.224Z,100588.94
2023-12-05T13:41:53.696Z,100664.44
2023-12-05T13:44:22.131Z,100566.44
2023-12-05T13:46:50.624Z,100652.56
2023-12-05T13:49:19.254Z,100635.72
2023-12-05T13:51:47.976Z,100612.47
2023-12-05T13:54:16.580Z,100657.91
2023-12-05T13:56:46.720Z,100656.09
2023-12-05T13:59:15.176Z,100677.06
2023-12-05T14:01:43.777Z,100659.84
2023-12-05T14:04:12.391Z,100697.69
2023-12-05T14:06:41.163Z,100645.13
2023-12-05T14:09:10.744Z,100696.28
2023-12-05T14:11:44.839Z,100657.84
2023-12-05T14:14:15.709Z,100583.91
2023-12-05T14:16:44.496Z,100728.63
2023-12-05T14:19:13.221Z,100714.13
2023-12-05T14:21:41.844Z,100682.41
2023-12-05T14:24:10.248Z,100707.03
2023-12-05T14:26:39.220Z,100744.59
2023-12-05T14:29:07.576Z,100752.44
2023-12-05T14:31:39.516Z,100745.41
2023-12-05T14:34:09.559Z,100714.09
2023-12-05T14:36:38.193Z,100762.16
2023-12-05T14:39:10.848Z,100719.00
2023-12-05T14:41:39.935Z,100768.03
2023-12-05T14:44:08.658Z,100768.19
2023-12-05T14:46:38.751Z,100775.75
2023-12-05T14:49:07.358Z,100783.69
2023-12-05T14:51:36.774Z,100782.84
2023-12-05T14:54:05.429Z,100759.53
2023-12-05T14:56:33.948Z,100767.66
2023-12-05T14:59:02.501Z,100772.16
2023-12-05T15:01:31.079Z,100777.56
2023-12-05T15:04:02.296Z,100799.94
2023-12-05T15:06:30.844Z,100801.84
2023-12-05T15:09:00.744Z,100762.56
2023-12-05T15:11:32.626Z,100770.81
2023-12-05T15:14:01.179Z,100773.25
2023-12-05T15:16:29.807Z,100795.03
2023-12-05T15:18:58.376Z,100815.63
2023-12-05T15:21:29.878Z,100806.59
2023-12-05T15:24:00.075Z,100723.56
2023-12-05T15:26:28.761Z,100660.25
2023-12-05T15:28:57.269Z,100766.78
2023-12-05T15:31:25.774Z,100837.81
2023-12-05T15:33:56.188Z,100844.03
2023-12-05T15:36:24.898Z,100844.47
2023-12-05T15:38:54.748Z,100824.56
2023-12-05T15:41:23.330Z,100850.56
2023-12-05T15:43:52.405Z,100834.44
2023-12-05T15:46:25.298Z,100831.81
2023-12-05T15:48:53.949Z,100861.38
2023-12-05T15:51:22.480Z,100849.84
2023-12-05T15:53:50.970Z,100832.91
2023-12-05T15:56:20.724Z,100862.47
2023-12-05T15:58:51.621Z,100804.06
2023-12-05T16:01:20.899Z,100800.16
2023-12-05T16:03:50.214Z,100855.94
2023-12-05T16:06:19.024Z,100803.41
2023-12-05T16:08:48.102Z,100886.38
2023-12-05T16:11:17.362Z,100799.53
2023-12-05T16:13:48.618Z,100746.91
2023-12-05T16:16:17.349Z,100844.16
2023-12-05T16:18:46.124Z,100836.91
2023-12-05T16:21:14.809Z,100858.50
2023-12-05T16:23:43.386Z,100877.00
2023-12-05T16:26:12.171Z,100898.94
2023-12-05T16:28:40.882Z,100738.00
2023-12-05T16:31:10.981Z,100900.63
2023-12-05T16:33:39.807Z,100902.63
2023-12-05T16:36:10.876Z,100915.66
2023-12-05T16:38:39.404Z,100915.16
2023-12-05T16:41:08.149Z,100912.00
2023-12-05T16:43:36.582Z,100759.56
2023-12-05T16:46:05.359Z,100869.97
2023-12-05T16:48:35.729Z,100878.63
2023-12-05T16:51:04.927Z,100869.47
2023-12-05T16:53:33.391Z,100813.72
2023-12-05T16:56:03.089Z,100796.78
2023-12-05T16:58:31.652Z,100925.47
2023-12-05T17:01:00.315Z,100930.53
2023-12-05T17:03:29.135Z,100721.31
2023-12-05T17:05:59.475Z,100863.19
2023-12-05T17:08:27.936Z,100942.22
2023-12-05T17:10:59.118Z,100927.78
2023-12-05T17:13:27.626Z,100776.41
2023-12-05T17:15:56.215Z,100938.72
2023-12-05T17:18:25.167Z,100743.13
2023-12-05T17:20:53.881Z,100744.66
2023-12-05T17:23:23.750Z,100866.44
2023-12-05T17:25:52.338Z,100965.22
2023-12-05T17:28:20.807Z,100782.88
2023-12-05T17:30:49.985Z,100908.34
2023-12-05T17:33:19.188Z,100782.41
2023-12-05T17:35:48.263Z,100960.19
2023-12-05T17:38:17.538Z,100830.75
2023-12-05T17:40:47.560Z,100975.75
2023-12-05T17:43:16.057Z,100891.31
2023-12-05T17:45:44.815Z,100992.09
2023-12-05T17:48:13.401Z,100989.31
2023-12-05T17:50:42.039Z,100991.97
2023-12-05T17:53:10.486Z,100864.66
2023-12-05T17:55:38.937Z,100973.88
2023-12-05T17:58:08.946Z,100919.19
2023-12-05T18:00:37.692Z,100914.44
2023-12-05T18:03:06.258Z,101007.28
2023-12-05T18:05:34.715Z,101014.69
2023-12-05T18:08:08.665Z,100986.25
2023-12-05T18:10:37.756Z,100997.81
2023-12-05T18:13:06.376Z,101000.69
2023-12-05T18:15:36.255Z,101016.78
2023-12-05T18:18:05.354Z,100922.34
2023-12-05T18:20:33.773Z,100984.34
2023-12-05T18:23:02.277Z,101036.31
2023-12-05T18:25:30.764Z,101024.97
2023-12-05T18:27:59.266Z,101033.59
2023-12-05T18:30:28.072Z,101036.44
2023-12-05T18:32:59.251Z,100916.97
2023-12-05T18:35:27.780Z,101023.72
2023-12-05T18:37:56.423Z,100994.53
2023-12-05T18:40:25.129Z,101042.09
2023-12-05T18:42:54.374Z,101035.19
2023-12-05T18:45:23.125Z,100947.81
2023-12-05T18:47:51.791Z,101065.09
2023-12-05T18:50:22.890Z,101059.13
2023-12-05T18:52:51.512Z,100925.88
2023-12-05T18:55:20.548Z,101070.59
2023-12-05T18:57:49.124Z,101061.97
2023-12-05T19:00:19.204Z,101046.28
2023-12-05T19:02:48.221Z,101060.69
2023-12-05T19:05:17.451Z,101001.41
2023-12-05T19:07:47.854Z,101076.81
2023-12-05T19:10:16.690Z,101086.63
2023-12-05T19:12:46.313Z,100959.78
2023-12-05T19:15:16.164Z,101093.22
2023-12-05T19:17:44.917Z,101086.66
2023-12-05T19:20:13.790Z,101089.16
2023-12-05T19:22:42.295Z,101074.31
2023-12-05T19:25:12.866Z,101065.09
2023-12-05T19:27:41.837Z,101063.59
2023-12-05T19:30:11.191Z,101106.44
2023-12-05T19:32:39.845Z,101059.78
2023-12-05T19:35:10.583Z,101022.56
2023-12-05T19:37:39.486Z,101086.66
2023-12-05T19:40:11.315Z,101115.41
2023-12-05T19:42:39.731Z,101110.88
2023-12-05T19:45:09.509Z,101113.34
2023-12-05T19:47:37.989Z,101113.53
2023-12-05T19:50:08.269Z,101065.63
2023-12-05T19:52:36.766Z,101100.59
2023-12-05T19:55:07.358Z,101097.78
2023-12-05T19:57:37.318Z,101124.91
2023-12-05T20:00:07.652Z,101101.91
2023-12-05T20:02:36.079Z,100937.88
2023-12-05T20:05:05.832Z,101076.56
2023-12-05T20:07:34.396Z,100958.44
2023-12-05T20:10:02.951Z,101145.53
2023-12-05T20:12:31.422Z,100967.91
2023-12-05T20:15:01.292Z,101026.44
2023-12-05T20:17:29.775Z,101119.59
2023-12-05T20:19:58.350Z,101044.47
2023-12-05T20:22:29.396Z,101117.31
2023-12-05T20:24:58.507Z,101145.19
2023-12-05T20:27:27.950Z,101136.66
2023-12-05T20:29:57.502Z,101148.94
2023-12-05T20:32:27.465Z,101148.19
2023-12-05T20:34:57.688Z,101139.06
2023-12-05T20:37:26.156Z,101148.00
2023-12-05T20:39:54.706Z,101045.50
2023-12-05T20:42:27.732Z,101144.84
2023-12-05T20:44:56.813Z,101070.84
2023-12-05T20:47:27.107Z,101142.66
2023-12-05T20:49:55.589Z,101158.06
2023-12-05T20:52:25.504Z,101081.44
2023-12-05T20:54:54.038Z,101114.72
2023-12-05T20:57:22.395Z,101130.34
2023-12-05T20:59:50.856Z,101129.03
2023-12-05T21:02:19.870Z,101138.81
2023-12-05T21:04:50.373Z,101171.78
2023-12-05T21:07:20.951Z,101173.00
2023-12-05T21:09:50.186Z,101175.41
2023-12-05T21:12:19.066Z,101125.84
2023-12-05T21:14:47.884Z,101156.25
2023-12-05T21:17:16.370Z,101184.44
2023-12-05T21:19:44.893Z,101167.00
2023-12-05T21:22:14.864Z,101098.59
2023-12-05T21:24:43.429Z,101159.44
2023-12-05T21:27:11.967Z,101112.41
2023-12-05T21:29:40.397Z,101204.13
2023-12-05T21:32:09.082Z,101203.47
2023-12-05T21:34:42.989Z,101213.63
2023-12-05T21:37:11.809Z,101210.28
2023-12-05T21:39:41.823Z,101176.84
2023-12-05T21:42:10.361Z,101036.13
2023-12-05T21:44:41.547Z,101134.44
2023-12-05T21:47:10.405Z,101200.25
2023-12-05T21:49:39.066Z,101178.66
2023-12-05T21:52:08.778Z,101177.16
2023-12-05T21:54:37.440Z,101166.53
2023-12-05T21:57:07.586Z,101238.75
2023-12-05T21:59:36.091Z,101105.59
2023-12-05T22:02:04.589Z,101209.84
2023-12-05T22:04:34.353Z,101232.94
2023-12-05T22:07:03.144Z,101212.56
2023-12-05T22:09:31.995Z,101135.00
2023-12-05T22:12:00.513Z,101247.34
2023-12-05T22:14:30.367Z,101186.53
2023-12-05T22:16:58.856Z,101251.47
2023-12-05T22:19:27.330Z,101182.69
2023-12-05T22:21:55.873Z,101269.91
2023-12-05T22:24:29.851Z,101238.78
2023-12-05T22:27:01.377Z,101150.28
2023-12-05T22:29:31.866Z,101221.84
2023-12-05T22:32:00.443Z,101255.22
2023-12-05T22:34:29.017Z,101265.25
2023-12-05T22:36:57.618Z,101188.97
2023-12-05T22:39:26.618Z,101274.50
2023-12-05T22:41:55.505Z,101278.47
2023-12-05T22:44:26.931Z,101281.59
2023-12-05T22:46:56.693Z,101277.63
2023-12-05T22:49:25.171Z,101283.56
2023-12-05T22:51:53.760Z,101225.97
2023-12-05T22:54:22.775Z,101292.78
2023-12-05T22:56:51.197Z,101248.63
2023-12-05T22:59:19.946Z,101285.03
2023-12-05T23:01:48.738Z,101186.22
2023-12-05T23:04:18.967Z,101278.88
2023-12-05T23:06:47.878Z,101297.69
2023-12-05T23:09:16.564Z,101310.84
2023-12-05T23:11:46.538Z,101315.59
2023-12-05T23:14:15.040Z,101272.97
2023-12-05T23:16:43.657Z,101286.66
2023-12-05T23:19:12.094Z,101321.91
2023-12-05T23:21:42.071Z,101166.81
2023-12-05T23:24:10.655Z,101273.69
2023-12-05T23:26:39.147Z,101264.31
2023-12-05T23:29:07.648Z,101332.09
2023-12-05T23:31:36.110Z,101321.22
2023-12-05T23:34:04.775Z,101281.06
2023-12-05T23:36:33.328Z,101284.78
2023-12-05T23:39:03.510Z,101330.47
2023-12-05T23:41:31.990Z,101319.69
2023-12-05T23:44:00.408Z,101206.94
2023-12-05T23:46:28.925Z,101330.78
2023-12-05T23:48:58.110Z,101336.84
2023-12-05T23:51:26.552Z,101319.94
2023-12-05T23:53:55.563Z,101331.47
2023-12-05T23:56:25.444Z,101306.88
2023-12-05T23:58:55.223Z,101336.00
